logo tempoitalia

Diretta Meteo O'Neill-Baker Fld, Stati Uniti (USA)lunedì 31 agosto ore 01:35

Mappa
Sereno 22 °C Sereno 24 Ore: T.min 18 T.max 33
Ponente Ovest/Nord-Ovest Km/h 13 Punto di rugiada: 15 °C Umidità: 64% Visibilità: 10 Km
Il sole sorge alle: 06:59 Il sole tramonta alle: 20:10
31 Agosto 2026 01:35 tempo osservato: Sereno Sereno 22 64 1011 vento: Nord O/NO 13
31 Agosto 2026 01:15 tempo osservato: Sereno Sereno 23 73 1011 vento: Nord O 13
31 Agosto 2026 00:55 tempo osservato: Sereno Sereno 23 73 1011 vento: Nord O 14.8
31 Agosto 2026 00:35 tempo osservato: Sereno Sereno 23 73 1010 vento: Nord SO 11.1
31 Agosto 2026 00:15 tempo osservato: Sereno Sereno 23 78 1010 vento: Nord SO 13
30 Agosto 2026 23:55 tempo osservato: Sereno Sereno 22 83 1010 vento: Nord SO 9.3
30 Agosto 2026 23:35 tempo osservato: Sereno Sereno 22 83 1010 vento: Nord SO 7.4
30 Agosto 2026 23:15 tempo osservato: Sereno Sereno 22 83 1010 vento: Nord N 5.5
30 Agosto 2026 22:55 tempo osservato: Sereno Sereno 22 78 1010 vento: Nord SO 7.4
30 Agosto 2026 22:35 tempo osservato: Sereno Sereno 23 73 1010 vento: Nord N 0
30 Agosto 2026 22:15 tempo osservato: Sereno Sereno 22 78 1010 vento: Nord N 0
30 Agosto 2026 21:55 tempo osservato: Sereno Sereno 23 73 1010 vento: Nord N 5.5
30 Agosto 2026 21:35 tempo osservato: Sereno Sereno 23 73 1009 vento: Nord S/SO 9.3
30 Agosto 2026 21:15 tempo osservato: Sereno Sereno 23 73 1009 vento: Nord S/SO 7.4
30 Agosto 2026 20:55 tempo osservato: Sereno Sereno 24 69 1009 vento: Nord S 7.4
30 Agosto 2026 20:35 tempo osservato: Sereno Sereno 25 65 1009 vento: Nord S/SO 13
30 Agosto 2026 20:15 tempo osservato: Sereno Sereno 26 61 1009 vento: Nord S/SO 7.4
30 Agosto 2026 19:55 tempo osservato: Sereno Sereno 28 54 1009 vento: Nord S 9.3
30 Agosto 2026 19:35 tempo osservato: Sereno Sereno 29 51 1009 vento: Nord S 13
30 Agosto 2026 19:15 tempo osservato: Sereno Sereno 30 48 1009 vento: Nord S 9.3
30 Agosto 2026 18:55 tempo osservato: Sereno Sereno 31 48 1009 vento: Nord S/SO 9.3
30 Agosto 2026 18:35 tempo osservato: Sereno Sereno 31 45 1009 vento: Nord S/SO 9.3
30 Agosto 2026 18:15 tempo osservato: Sereno Sereno 32 40 1009 vento: Nord SO 11.1
30 Agosto 2026 17:55 tempo osservato: Sereno Sereno 31 37 1009 vento: Nord O/SO 14.8
30 Agosto 2026 17:35 tempo osservato: Sereno Sereno 32 38 1009 vento: Nord O/SO 16.7
30 Agosto 2026 17:15 tempo osservato: Sereno Sereno 32 38 1008 vento: Nord O/SO 14.8
30 Agosto 2026 16:55 tempo osservato: Sereno Sereno 31 43 1008 vento: Nord O/SO 13
30 Agosto 2026 16:35 tempo osservato: Sereno Sereno 32 38 1008 vento: Nord O/SO 14.8
30 Agosto 2026 16:15 tempo osservato: Sereno Sereno 32 40 1009 vento: Nord O/SO 14.8
30 Agosto 2026 15:55 tempo osservato: Sereno Sereno 33 31 1008 vento: Nord O/SO 16.7
30 Agosto 2026 15:35 tempo osservato: Sereno Sereno 33 31 1009 vento: Nord O/SO 22.2
30 Agosto 2026 15:15 tempo osservato: Sereno Sereno 32 38 1009 vento: Nord O/SO 9.3
30 Agosto 2026 14:55 tempo osservato: Sereno Sereno 32 40 1009 vento: Nord O 9.3
30 Agosto 2026 14:35 tempo osservato: Sereno Sereno 32 40 1009 vento: Nord O/SO 9.3
30 Agosto 2026 14:15 tempo osservato: Sereno Sereno 32 35 1009 vento: Nord SO 7.4
30 Agosto 2026 13:55 tempo osservato: Sereno Sereno 32 38 1009 vento: Nord O/SO 7.4
30 Agosto 2026 13:35 tempo osservato: Sereno Sereno 31 40 1009 vento: Nord O 7.4
30 Agosto 2026 13:15 tempo osservato: Sereno Sereno 31 43 1009 vento: Nord O 11.1
30 Agosto 2026 12:55 tempo osservato: Sereno Sereno 30 45 1010 vento: Nord O 9.3
30 Agosto 2026 12:35 tempo osservato: Sereno Sereno 30 42 1010 vento: Nord O 7.4
30 Agosto 2026 12:15 tempo osservato: Sereno Sereno 30 45 1010 vento: Nord O/NO 7.4
30 Agosto 2026 11:55 tempo osservato: Sereno Sereno 29 48 1010 vento: Nord O 9.3
30 Agosto 2026 11:35 tempo osservato: Sereno Sereno 28 54 1010 vento: Nord O/SO 7.4
30 Agosto 2026 11:15 tempo osservato: Sereno Sereno 28 51 1010 vento: Nord O 7.4
30 Agosto 2026 10:55 tempo osservato: Sereno Sereno 27 57 1010 vento: Nord O 7.4
30 Agosto 2026 10:35 tempo osservato: Sereno Sereno 26 61 1010 vento: Nord O 11.1
30 Agosto 2026 10:15 tempo osservato: Sereno Sereno 27 57 1009 vento: Nord O 9.3
30 Agosto 2026 09:55 tempo osservato: Sereno Sereno 26 61 1009 vento: Nord O 9.3
30 Agosto 2026 09:35 tempo osservato: Sereno Sereno 26 61 1009 vento: Nord O 9.3
30 Agosto 2026 09:15 tempo osservato: Sereno Sereno 25 65 1009 vento: Nord O 11.1
30 Agosto 2026 08:55 tempo osservato: Sereno Sereno 24 69 1009 vento: Nord O/SO 7.4
30 Agosto 2026 08:35 tempo osservato: Sereno Sereno 22 78 1009 vento: Nord SO 9.3
30 Agosto 2026 08:15 tempo osservato: Sereno Sereno 21 77 1009 vento: Nord N 5.5
30 Agosto 2026 07:55 tempo osservato: Sereno Sereno 20 82 1009 vento: Nord N 0
30 Agosto 2026 07:35 tempo osservato: Sereno Sereno 18 93 1009 vento: Nord SO 7.4
30 Agosto 2026 07:15 tempo osservato: Sereno Sereno 19 88 1009 vento: Nord S 7.4
30 Agosto 2026 06:55 tempo osservato: Sereno Sereno 20 82 1009 vento: Nord O/NO 9.3
30 Agosto 2026 06:35 tempo osservato: Sereno Sereno 20 82 1009 vento: Nord O/NO 11.1
30 Agosto 2026 06:15 tempo osservato: Sereno Sereno 20 82 1008 vento: Nord O/NO 7.4
30 Agosto 2026 05:55 tempo osservato: Sereno Sereno 20 88 1008 vento: Nord N/NO 7.4
30 Agosto 2026 05:35 tempo osservato: Sereno Sereno 21 82 1009 vento: Nord N/NO 14.8
30 Agosto 2026 05:15 tempo osservato: Sereno Sereno 21 82 1008 vento: Nord N 5.5
30 Agosto 2026 04:55 tempo osservato: Temporale Temporale 22 78 1009 vento: Nord SO 7.4
30 Agosto 2026 04:35 tempo osservato: Sereno Sereno 22 78 1009 vento: Nord S 9.3
30 Agosto 2026 04:15 tempo osservato: Sereno Sereno 22 78 1009 vento: Nord S 18.5
30 Agosto 2026 03:55 tempo osservato: Sereno Sereno 22 83 1009 vento: Nord S/SO 9.3
30 Agosto 2026 03:35 tempo osservato: Sereno Sereno 24 73 1009 vento: Nord S/SO 13
30 Agosto 2026 03:15 tempo osservato: Sereno Sereno 23 83 1009 vento: Nord S 14.8
30 Agosto 2026 02:55 tempo osservato: Sereno Sereno 23 83 1009 vento: Nord N 0
30 Agosto 2026 02:35 tempo osservato: Sereno Sereno 23 88 1009 vento: Nord O 9.3
30 Agosto 2026 02:15 tempo osservato: Sereno Sereno 23 88 1009 vento: Nord SO 9.3
30 Agosto 2026 01:55 tempo osservato: Sereno Sereno 23 88 1009 vento: Nord N 0
30 Agosto 2026 01:35 tempo osservato: Sereno Sereno 23 88 1009 vento: Nord SO 9.3